»·PEaware :: N21705 KSBA-KBUR

N21705 :: KSBA-KBUR

FLIGHT INFORMATION

Flight Status: Arrived
Operator: Privately registered:
United States
More flights under this callsign
Pilot: Anonymous 33140 (33140)
Aircraft: CESSNA 172 SKYHAWK
(C172)
More flights by this aircraft type
Origin: KSBA Santa Barbara Mun
United States
Destination: KBUR Bob Hope-Burbank
United States
More flights between these airports :: More routes between these airports
Route: FIM
File this flight plan on PilotEdge
Remarks:
Altitude:
(Current/Filed)
5,500ft
Speed:
(Current/Filed)
110kts
Departed: 10-Jan-21 04:24 PM
Arrived: 10-Jan-21 05:09 PM
Distance/Time
Traveled:
75nm/0:45
Distance/Time
To Go:
Arrived

Flight Plot

Page will automatically refresh every two minutes.


Map Options




Map Legend


Flown Route
Filed Route
Departure Airport
Arrival Airport
Navaid (VOR, NDB)
Fix

Horizontal Profiles

Position Reports

Time Latitude Longitude Heading Altitude Ground
Speed
10-Jan-21 16:12 34.431589 -119.837927 253 12ft 0kts
10-Jan-21 16:13 34.431589 -119.837927 253 12ft 0kts
10-Jan-21 16:14 34.431589 -119.837927 253 12ft 0kts
10-Jan-21 16:15 34.431589 -119.837927 253 12ft 0kts
10-Jan-21 16:16 34.431651 -119.837681 253 12ft 0kts
10-Jan-21 16:17 34.431651 -119.837681 253 12ft 0kts
10-Jan-21 16:18 34.431650 -119.837681 253 12ft 0kts
10-Jan-21 16:19 34.431008 -119.838788 250 11ft 8kts
10-Jan-21 16:20 34.430757 -119.839614 247 11ft 0kts
10-Jan-21 16:21 34.430757 -119.839614 247 11ft 0kts
10-Jan-21 16:22 34.430757 -119.839614 247 11ft 0kts
10-Jan-21 16:23 34.423051 -119.837844 166 69ft 75kts
10-Jan-21 16:24 34.400937 -119.830950 168 724ft 83kts
10-Jan-21 16:25 34.378040 -119.824641 167 1399ft 85kts
10-Jan-21 16:26 34.350221 -119.822986 219 1734ft 101kts
10-Jan-21 16:27 34.332562 -119.843111 273 2224ft 101kts
10-Jan-21 16:28 34.334101 -119.872050 187 2664ft 102kts
10-Jan-21 16:29 34.326601 -119.843999 83 3093ft 99kts
10-Jan-21 16:30 34.329830 -119.811819 78 3624ft 95kts
10-Jan-21 16:31 34.334782 -119.780120 77 4110ft 96kts
10-Jan-21 16:32 34.339422 -119.748112 77 4569ft 96kts
10-Jan-21 16:33 34.343495 -119.715842 77 5007ft 97kts
10-Jan-21 16:34 34.345735 -119.683527 86 5437ft 100kts
10-Jan-21 16:35 34.343688 -119.645620 89 5494ft 123kts
10-Jan-21 16:36 34.341472 -119.603559 89 5494ft 126kts
10-Jan-21 16:37 34.339457 -119.561120 89 5496ft 126kts
10-Jan-21 16:38 34.337599 -119.518824 89 5496ft 125kts
10-Jan-21 16:39 34.336042 -119.476613 89 5497ft 125kts
10-Jan-21 16:40 34.334701 -119.434419 89 5496ft 125kts
10-Jan-21 16:41 34.333540 -119.392328 89 5488ft 124kts
10-Jan-21 16:42 34.332476 -119.350729 89 5487ft 122kts
10-Jan-21 16:43 34.331623 -119.309557 89 5505ft 123kts
10-Jan-21 16:44 34.330939 -119.267873 89 5504ft 124kts
10-Jan-21 16:45 34.330387 -119.225686 89 5484ft 122kts
10-Jan-21 16:46 34.329812 -119.184688 89 5497ft 121kts
10-Jan-21 16:47 34.329330 -119.143658 89 5493ft 121kts
10-Jan-21 16:48 34.328870 -119.103138 89 5497ft 120kts
10-Jan-21 16:49 34.328405 -119.062621 89 5506ft 120kts
10-Jan-21 16:50 34.327952 -119.022010 89 5492ft 121kts
10-Jan-21 16:51 34.327453 -118.981688 89 5507ft 121kts
10-Jan-21 16:52 34.326952 -118.941200 89 5510ft 119kts
10-Jan-21 16:53 34.321637 -118.901907 107 5515ft 120kts
10-Jan-21 16:54 34.309471 -118.864627 108 5519ft 121kts
10-Jan-21 16:55 34.296801 -118.826966 109 5510ft 120kts
10-Jan-21 16:56 34.284032 -118.789664 108 5517ft 120kts
10-Jan-21 16:57 34.271127 -118.752405 109 5494ft 122kts
10-Jan-21 16:58 34.258030 -118.714466 108 5497ft 123kts
10-Jan-21 16:59 34.243202 -118.677638 114 5331ft 126kts
10-Jan-21 17:00 34.227996 -118.639880 110 5223ft 124kts
10-Jan-21 17:01 34.214121 -118.601304 110 4943ft 124kts
10-Jan-21 17:02 34.202928 -118.561737 102 4616ft 123kts
10-Jan-21 17:03 34.197958 -118.520523 91 4253ft 124kts
10-Jan-21 17:04 34.198037 -118.478894 87 3846ft 123kts
10-Jan-21 17:05 34.197827 -118.437370 89 3104ft 123kts
10-Jan-21 17:06 34.197947 -118.397654 88 2119ft 107kts
10-Jan-21 17:07 34.197922 -118.367280 95 736ft 73kts
10-Jan-21 17:08 34.198713 -118.360166 2 717ft 0kts
10-Jan-21 17:09 34.199767 -118.359840 64 718ft 8kts

Navigation Log

Ident Type
Flight plan parsing failed, navigation log unavailable